Troicko-Pecherskoe, Russia
Current Conditions -  °F | °C
As of 4:30 PM on Saturday 25 Oct 2014 (Local Time) from UUYY Reporting Station
Overcast Overcast  
Wind Chill: 15°   Ceiling: 2500
Heat Index: 21°   Visibility: 6mi
Dew Point: 14°   Wind: 4mph
Humidity: 74%   Direction: NA
Pressure: 30.42"   Gusts: NA
Location:  62.7°N, 56.2°E
Report Text: UUYY 251330Z VRB02MPS 9000 BKN025CB OVC066 M06/M10 Q1030 TEMPO 1000 SHSN 0182//49 RMK QFE763/1018
Loading
Personal Weather Stations






























Interactive Weather Map
Tropical Storm Tracking
New forecast layout! Learn more

10-Day Weather Forecast

Advertisements
Track Severe Weather on mobile